Airfield :
LOGIN :

Register | Disclaimer

   EN    FR    IT 

 










Legend :    VFR   Marginal VFR   IFR   Intensive IFR   Very Intensive IFR
Visi :
Ceiling :
>= 8 km
>= 3000ft
5 to 8 km
1000 to 3000 ft
1500m to 5 km
500 to 1000 ft
800 to 1500m
200 to 500 ft
< 800m
< 200 ft
Symbols :   Thunderstorms  Fog  Heavy snow  Heavy precipitations  Wind > 20 kt
SIGMETs :     Misc.  Thunderstorms  Icing  Turbulence  Mountain Waves  Volcanic Ashes







- Airport Elevation : 308 ft


ESCF - Malmen AB

CURRENT METAR :
  • 221820Z AUTO 24007KT 9999 FEW024/// BKN050/// OVC068/// 18/14 Q1011

EXPIRED METARs :
  • 221750Z AUTO 25006KT 9999 FEW084/// BKN130/// 17/14 Q1010
  • 221720Z AUTO 26007KT 9999 SCT086/// 18/13 Q1009
  • 221650Z AUTO 27010KT 9999 BKN064/// BKN080/// 20/12 Q1009
  • 221620Z AUTO 13005KT 090V200 9999 FEW088/// 24/13 Q1009
  • 221550Z AUTO 09008KT 9999 NCD 25/13 Q1008

Expired Forecast.
No reported NOTAMs for that airfield.



MET'MAP, your aeronautical weather chart ! - Copyright ORBIFLY December 2007 - Disclaimer

ORBIFLY MET'MAP TEAM :

Programming & Development : Alexandra Zaïnal
Concept & Development : Baudouin d'Aumeries
Co-Development & Prog : Marc-Olivier Méhu
Technical & hardware support : Manuel Goepfert

Contact : metmap@orbifly.com




SOURCES & CREDITS :

   NOAA